Time;durP1;ratioP1;P1;durP2;ratioP2;P2;SDS_P1;SDS_P2;PMS_P1;PMS_P2;Temp;Humidity;BMP_temperature;BMP_pressure;BME280_temperature;BME280_humidity;BME280_pressure;Samples;Min_cycle;Max_cycle;Signal;HPM_P1;HPM_P2
2023/01/06 00:00:09;;;;;;;31.40;14.15;;;;;;;12.16;51.69;101749.44;7396478;19;20029;-58
2023/01/06 00:02:34;;;;;;;25.95;12.32;;;;;;;12.11;51.78;101746.09;7395716;19;20001;-58
2023/01/06 00:05:00;;;;;;;29.50;14.02;;;;;;;12.19;51.64;101746.06;7395505;19;20068;-58
2023/01/06 00:07:26;;;;;;;31.17;14.50;;;;;;;12.23;51.54;101741.50;7394838;19;19998;-58
2023/01/06 00:09:52;;;;;;;27.05;14.32;;;;;;;12.13;51.77;101741.88;7395930;19;20026;-57
2023/01/06 00:12:25;;;;;;;29.02;14.15;;;;;;;12.17;51.75;101736.56;7395468;19;19998;-57
2023/01/06 00:14:51;;;;;;;28.80;14.52;;;;;;;12.17;52.04;101733.81;7396932;19;20018;-58
2023/01/06 00:17:17;;;;;;;26.88;13.32;;;;;;;12.11;52.23;101738.69;7393458;19;20467;-58
2023/01/06 00:19:43;;;;;;;28.52;15.13;;;;;;;11.95;52.64;101732.16;7395668;19;20029;-57
2023/01/06 00:22:09;;;;;;;27.08;14.18;;;;;;;12.02;52.39;101724.22;7395658;19;20007;-57
2023/01/06 00:24:34;;;;;;;28.88;14.30;;;;;;;12.15;52.10;101734.16;7390046;19;20460;-58
2023/01/06 00:27:00;;;;;;;30.85;14.00;;;;;;;12.17;52.05;101726.44;7392416;19;20005;-58
2023/01/06 00:29:26;;;;;;;28.55;15.07;;;;;;;12.21;51.88;101721.88;7394013;19;20519;-58
2023/01/06 00:31:52;;;;;;;30.95;15.38;;;;;;;12.14;52.13;101727.09;7392714;19;20018;-58
2023/01/06 00:34:18;;;;;;;30.08;14.88;;;;;;;12.06;52.34;101724.38;7394641;19;19995;-58
2023/01/06 00:36:44;;;;;;;29.35;14.43;;;;;;;12.22;52.07;101723.50;7395535;19;20016;-58
2023/01/06 00:39:12;;;;;;;28.50;14.88;;;;;;;12.28;51.87;101720.56;7395288;19;20019;-58
2023/01/06 00:44:23;;;;;;;26.85;15.23;;;;;;;11.83;53.27;101719.94;7393825;19;19998;-58
2023/01/06 00:46:49;;;;;;;31.67;15.50;;;;;;;12.06;52.54;101716.97;7395680;19;20002;-58
2023/01/06 00:49:15;;;;;;;31.38;15.77;;;;;;;12.25;51.97;101710.28;7394817;19;20006;-59
2023/01/06 00:51:41;;;;;;;32.00;14.60;;;;;;;12.33;51.99;101704.75;7392857;19;19999;-58
2023/01/06 00:54:08;;;;;;;33.33;15.70;;;;;;;12.37;51.72;101702.16;7393173;19;20347;-58
2023/01/06 00:56:39;;;;;;;28.73;15.55;;;;;;;12.39;51.84;101697.97;7394654;19;20001;-58
2023/01/06 00:59:06;;;;;;;33.80;16.60;;;;;;;12.41;51.70;101705.84;7392859;19;20062;-58
2023/01/06 01:01:33;;;;;;;27.17;15.40;;;;;;;12.43;51.57;101694.56;7391357;19;19991;-58
2023/01/06 01:03:59;;;;;;;29.05;16.30;;;;;;;12.39;51.59;101694.41;7391364;19;19998;-57
2023/01/06 01:06:25;;;;;;;27.60;15.52;;;;;;;12.32;51.91;101697.66;7393270;19;19995;-57
2023/01/06 01:08:55;;;;;;;33.05;16.55;;;;;;;12.38;51.71;101692.81;7393355;19;20022;-57
2023/01/06 01:14:08;;;;;;;31.50;15.98;;;;;;;12.19;52.29;101691.31;7393201;19;20090;-58
2023/01/06 01:16:34;;;;;;;31.85;16.25;;;;;;;12.34;52.04;101692.69;7392442;19;19994;-57
2023/01/06 01:19:00;;;;;;;28.77;17.17;;;;;;;12.26;51.85;101689.97;7395110;19;20070;-58
2023/01/06 01:21:25;;;;;;;36.20;16.88;;;;;;;12.32;51.94;101694.91;7391393;19;20334;-57
2023/01/06 01:23:51;;;;;;;32.92;16.08;;;;;;;12.28;51.83;101687.72;7393631;19;20060;-58
2023/01/06 01:26:17;;;;;;;32.13;16.83;;;;;;;12.32;52.08;101689.44;7392290;19;20003;-57
2023/01/06 01:28:43;;;;;;;36.40;16.48;;;;;;;12.37;51.90;101685.72;7394078;19;20026;-58
2023/01/06 01:31:09;;;;;;;31.40;16.42;;;;;;;12.37;52.01;101685.72;7392070;19;20019;-57
2023/01/06 01:33:36;;;;;;;31.20;17.38;;;;;;;12.42;52.04;101671.84;7391311;19;20002;-58
2023/01/06 01:36:13;;;;;;;34.55;16.77;;;;;;;12.39;51.93;101672.50;7392302;19;20083;-58
2023/01/06 01:38:39;;;;;;;32.35;16.25;;;;;;;12.29;52.55;101678.38;7394355;19;20010;-57
2023/01/06 01:41:05;;;;;;;37.20;17.83;;;;;;;12.35;52.24;101679.78;7391846;19;19998;-58
2023/01/06 01:43:51;;;;;;;32.10;17.08;;;;;;;12.48;51.85;101680.69;7392154;19;20613;-58
2023/01/06 01:46:26;;;;;;;36.83;17.83;;;;;;;12.47;51.72;101679.84;7389732;19;20011;-57
2023/01/06 01:48:55;;;;;;;39.95;17.75;;;;;;;12.46;52.00;101683.75;7392080;19;20009;-58
2023/01/06 01:51:32;;;;;;;31.65;16.83;;;;;;;12.50;51.94;101681.94;7390893;19;20400;-57
2023/01/06 01:54:01;;;;;;;30.60;16.88;;;;;;;12.50;51.99;101681.94;7392005;19;20006;-57
2023/01/06 01:56:30;;;;;;;33.58;17.35;;;;;;;12.47;52.01;101679.84;7391595;19;20003;-57
2023/01/06 01:59:03;;;;;;;30.73;16.67;;;;;;;12.50;51.81;101678.41;7393301;19;20017;-58
2023/01/06 02:01:30;;;;;;;31.27;16.23;;;;;;;12.45;52.35;101676.66;7392319;19;20020;-58
2023/01/06 02:03:56;;;;;;;28.13;15.70;;;;;;;12.45;52.43;101678.59;7391900;19;20227;-58
2023/01/06 02:06:24;;;;;;;32.72;17.70;;;;;;;12.46;52.37;101670.06;7390124;19;20006;-56
2023/01/06 02:09:07;;;;;;;30.25;16.65;;;;;;;12.51;52.04;101667.13;7393148;19;20014;-56
2023/01/06 02:11:36;;;;;;;32.47;17.60;;;;;;;12.47;52.52;101673.59;7390816;19;19995;-57
2023/01/06 02:14:14;;;;;;;36.00;16.92;;;;;;;12.49;52.43;101665.84;7391243;19;20274;-58
2023/01/06 02:16:55;;;;;;;33.25;17.90;;;;;;;12.33;52.96;101668.38;7393024;19;20006;-57
2023/01/06 02:19:57;;;;;;;34.40;18.25;;;;;;;12.33;52.68;101651.94;7390214;19;19994;-58
2023/01/06 02:22:41;;;;;;;29.33;16.15;;;;;;;12.53;52.40;101653.88;7391970;19;20013;-57
2023/01/06 02:25:25;;;;;;;28.50;17.13;;;;;;;12.54;52.64;101647.28;7390967;19;20066;-57
2023/01/06 02:28:18;;;;;;;32.78;16.80;;;;;;;12.59;52.13;101649.00;7391845;19;19999;-57
2023/01/06 02:31:15;;;;;;;30.70;17.20;;;;;;;12.55;52.58;101640.66;7390985;19;20097;-57
2023/01/06 02:33:58;;;;;;;29.13;16.77;;;;;;;12.54;52.21;101635.50;7390486;19;19994;-57
2023/01/06 02:36:49;;;;;;;27.77;16.25;;;;;;;12.49;52.54;101639.28;7390148;19;20006;-58
2023/01/06 02:39:25;;;;;;;26.98;16.02;;;;;;;12.43;52.80;101631.59;7391275;19;20002;-57
2023/01/06 02:42:00;;;;;;;29.23;15.27;;;;;;;12.50;52.50;101618.94;7389999;19;20002;-58
2023/01/06 02:44:47;;;;;;;26.92;15.80;;;;;;;12.35;52.98;101619.56;7389948;19;20018;-58
2023/01/06 02:47:34;;;;;;;28.05;14.38;;;;;;;12.39;52.97;101621.31;7392308;19;20009;-57
2023/01/06 02:50:24;;;;;;;27.10;14.25;;;;;;;12.47;52.49;101619.63;7390466;19;20010;-58
2023/01/06 02:53:16;;;;;;;23.60;14.10;;;;;;;12.41;52.65;101615.50;7386239;19;20003;-57
2023/01/06 02:55:48;;;;;;;22.23;12.98;;;;;;;12.34;52.98;101609.72;7388530;19;19998;-57
2023/01/06 02:58:27;;;;;;;23.98;12.48;;;;;;;12.27;52.87;101612.22;7391212;19;20006;-58
2023/01/06 03:01:02;;;;;;;22.50;13.10;;;;;;;12.38;52.95;101599.72;7390163;19;19999;-57
2023/01/06 03:03:32;;;;;;;22.83;12.32;;;;;;;12.37;52.76;101595.38;7389684;19;19995;-57
2023/01/06 03:06:05;;;;;;;21.30;11.80;;;;;;;12.33;52.56;101587.03;7389381;19;20022;-57
2023/01/06 03:08:32;;;;;;;19.55;11.63;;;;;;;12.41;52.66;101585.38;7391704;19;20439;-57
2023/01/06 03:11:00;;;;;;;19.17;11.15;;;;;;;12.55;52.28;101582.34;7389513;19;20019;-58
2023/01/06 03:13:44;;;;;;;21.85;11.40;;;;;;;12.53;52.28;101577.22;7389211;19;20456;-58
2023/01/06 03:16:10;;;;;;;20.65;11.50;;;;;;;12.38;52.64;101575.09;7391590;19;20002;-58
2023/01/06 03:18:40;;;;;;;18.48;11.32;;;;;;;12.50;52.65;101568.88;7390303;19;19999;-58
2023/01/06 03:21:12;;;;;;;20.70;11.45;;;;;;;12.35;52.83;101562.88;7389906;19;20002;-58
2023/01/06 03:23:40;;;;;;;18.02;10.43;;;;;;;12.34;53.11;101563.19;7388601;19;20010;-58
2023/01/06 03:26:06;;;;;;;17.60;10.75;;;;;;;12.48;53.10;101555.50;7389579;19;19998;-57
2023/01/06 03:28:32;;;;;;;18.17;10.70;;;;;;;12.39;53.22;101563.00;7391235;19;20002;-58
2023/01/06 03:31:19;;;;;;;20.65;11.18;;;;;;;12.16;53.80;101560.63;7392421;19;20444;-58
2023/01/06 03:34:05;;;;;;;15.77;9.93;;;;;;;12.35;53.30;101556.59;7396722;19;19999;-58
2023/01/06 03:36:50;;;;;;;17.13;10.55;;;;;;;12.42;52.96;101554.13;7397946;19;19999;-58
2023/01/06 03:39:45;;;;;;;17.10;10.60;;;;;;;12.46;52.67;101554.25;7397827;19;20014;-57
2023/01/06 03:45:49;;;;;;;18.05;10.40;;;;;;;12.60;52.54;101558.28;7394412;19;20455;-57
2023/01/06 03:48:44;;;;;;;17.50;9.88;;;;;;;12.42;52.75;101554.13;7395457;19;20470;-57
2023/01/06 03:51:31;;;;;;;19.45;10.80;;;;;;;12.32;52.94;101554.53;7392295;19;20010;-57
2023/01/06 03:54:17;;;;;;;16.60;9.85;;;;;;;12.28;53.21;101553.59;7395504;19;20474;-57
2023/01/06 03:57:23;;;;;;;17.27;9.18;;;;;;;12.34;52.98;101538.56;7397355;19;20006;-57
2023/01/06 03:59:54;;;;;;;17.85;9.02;;;;;;;12.38;52.57;101539.50;7397480;19;20031;-58
2023/01/06 04:02:21;;;;;;;15.50;8.60;;;;;;;12.44;52.50;101538.16;7395868;19;20019;-57
2023/01/06 04:05:22;;;;;;;17.67;8.50;;;;;;;12.43;52.55;101536.56;7394351;19;20003;-57
2023/01/06 04:07:48;;;;;;;15.40;8.32;;;;;;;12.39;52.66;101532.88;7394554;19;20002;-58
2023/01/06 04:10:16;;;;;;;13.85;7.82;;;;;;;12.34;52.73;101522.13;7395617;19;20352;-57
2023/01/06 04:12:42;;;;;;;13.70;8.13;;;;;;;12.44;52.42;101515.44;7395420;19;20199;-57
2023/01/06 04:15:15;;;;;;;14.70;8.20;;;;;;;12.56;52.02;101513.56;7395858;19;20003;-57
2023/01/06 04:17:42;;;;;;;12.40;6.90;;;;;;;12.53;51.89;101497.81;7395681;19;20034;-57
2023/01/06 04:20:12;;;;;;;13.75;7.45;;;;;;;12.00;53.10;101496.66;7393671;19;20483;-57
2023/01/06 04:22:38;;;;;;;13.50;6.63;;;;;;;12.04;53.05;101486.69;7393013;19;20363;-57
2023/01/06 04:25:05;;;;;;;11.45;6.70;;;;;;;12.14;52.57;101491.75;7395327;19;20014;-57
2023/01/06 04:27:31;;;;;;;12.30;7.45;;;;;;;12.01;52.90;101488.13;7395888;19;20003;-57
2023/01/06 04:29:57;;;;;;;14.75;6.63;;;;;;;12.03;52.76;101487.81;7396239;19;20002;-57
2023/01/06 04:32:24;;;;;;;14.15;6.85;;;;;;;11.92;53.04;101476.44;7394544;19;20007;-57
2023/01/06 04:34:50;;;;;;;12.38;6.45;;;;;;;12.21;51.91;101470.09;7396469;19;20007;-57
2023/01/06 04:37:16;;;;;;;11.80;6.68;;;;;;;12.34;51.66;101483.81;7396072;19;20002;-57
2023/01/06 04:39:42;;;;;;;13.30;6.68;;;;;;;12.23;51.81;101467.81;7395766;19;20002;-58
2023/01/06 04:42:08;;;;;;;11.98;7.43;;;;;;;12.27;51.89;101458.94;7394334;19;20009;-57
2023/01/06 04:44:34;;;;;;;10.93;7.28;;;;;;;12.07;52.45;101466.81;7394007;19;20002;-57
2023/01/06 04:47:00;;;;;;;12.05;6.70;;;;;;;11.82;52.90;101449.47;7395484;19;19994;-57
2023/01/06 04:49:25;;;;;;;13.23;8.50;;;;;;;11.78;53.00;101457.53;7396629;19;19999;-57
2023/01/06 04:51:51;;;;;;;11.85;7.70;;;;;;;11.99;52.54;101452.09;7392028;19;20023;-57
2023/01/06 04:54:17;;;;;;;13.18;7.25;;;;;;;12.29;52.00;101442.97;7393636;19;20058;-57
2023/01/06 04:56:43;;;;;;;14.18;8.73;;;;;;;12.30;51.79;101452.78;7396379;19;20444;-57
2023/01/06 04:59:09;;;;;;;13.45;8.52;;;;;;;12.00;52.54;101436.47;7393318;19;20002;-57
2023/01/06 05:01:36;;;;;;;13.50;9.18;;;;;;;12.12;52.41;101439.25;7392715;19;20005;-57
2023/01/06 05:04:02;;;;;;;13.48;9.00;;;;;;;12.20;52.26;101448.53;7392848;19;19999;-57
2023/01/06 05:06:28;;;;;;;15.65;9.75;;;;;;;12.29;51.62;101457.47;7393471;19;20007;-57
2023/01/06 05:08:54;;;;;;;14.18;9.40;;;;;;;12.11;52.38;101453.31;7394324;19;20002;-57
2023/01/06 05:11:22;;;;;;;13.70;9.65;;;;;;;12.29;51.81;101442.97;7393248;19;20244;-57
2023/01/06 05:13:49;;;;;;;16.95;10.27;;;;;;;12.29;51.79;101445.69;7392980;19;20003;-58
2023/01/06 05:16:18;;;;;;;16.10;10.02;;;;;;;12.42;51.50;101447.34;7394362;19;19994;-57
2023/01/06 05:18:44;;;;;;;15.27;10.27;;;;;;;12.32;51.76;101442.28;7394090;19;20027;-57
2023/01/06 05:21:11;;;;;;;16.20;10.27;;;;;;;12.46;51.52;101452.94;7394074;19;20003;-57
2023/01/06 05:23:37;;;;;;;15.57;10.30;;;;;;;12.36;51.62;101452.25;7392889;19;19995;-57
2023/01/06 05:26:04;;;;;;;15.77;10.52;;;;;;;12.05;52.33;101444.47;7392541;19;20019;-57
2023/01/06 05:28:30;;;;;;;15.70;9.63;;;;;;;11.91;52.62;101452.19;7395136;19;20476;-58
2023/01/06 05:31:01;;;;;;;14.60;10.15;;;;;;;12.23;51.67;101442.38;7391032;19;20167;-57
2023/01/06 05:33:27;;;;;;;13.20;9.45;;;;;;;12.17;51.83;101441.00;7393066;19;20462;-57
2023/01/06 05:35:59;;;;;;;14.23;9.82;;;;;;;12.37;51.46;101450.28;7394450;19;20003;-57
2023/01/06 05:38:25;;;;;;;13.90;9.70;;;;;;;12.39;51.45;101448.00;7394085;19;20074;-58
2023/01/06 05:40:51;;;;;;;14.95;8.98;;;;;;;12.46;51.26;101439.25;7393204;19;20073;-57
2023/01/06 05:43:17;;;;;;;13.50;9.45;;;;;;;12.48;51.19;101426.84;7391651;19;20007;-58
2023/01/06 05:45:43;;;;;;;13.30;9.00;;;;;;;12.53;51.11;101425.81;7391620;19;20514;-58
2023/01/06 05:48:09;;;;;;;13.70;8.77;;;;;;;12.46;51.25;101437.31;7394143;19;20003;-58
2023/01/06 05:50:35;;;;;;;13.23;8.65;;;;;;;12.35;51.48;101431.47;7391600;19;20483;-58
2023/01/06 05:53:01;;;;;;;13.60;8.40;;;;;;;12.21;51.82;101425.50;7389818;19;20355;-58
2023/01/06 05:55:26;;;;;;;14.43;7.85;;;;;;;12.17;51.86;101425.38;7391042;19;20014;-58
2023/01/06 05:57:52;;;;;;;13.82;8.38;;;;;;;12.08;52.27;101410.97;7392682;19;20062;-58
2023/01/06 06:00:18;;;;;;;13.27;7.63;;;;;;;12.28;51.65;101420.28;7392577;19;20099;-58
2023/01/06 06:02:44;;;;;;;12.25;7.85;;;;;;;12.51;50.95;101412.47;7390789;19;19998;-57
2023/01/06 06:05:09;;;;;;;12.20;7.20;;;;;;;12.53;51.15;101409.38;7393190;19;20006;-58
2023/01/06 06:07:35;;;;;;;10.45;7.07;;;;;;;12.33;51.20;101411.06;7393236;19;20007;-57
2023/01/06 06:10:01;;;;;;;13.75;7.15;;;;;;;12.23;51.59;101399.38;7392406;19;19994;-58
2023/01/06 06:12:30;;;;;;;12.27;7.22;;;;;;;12.55;50.69;101402.41;7390618;19;20014;-58
2023/01/06 06:14:56;;;;;;;10.88;6.53;;;;;;;12.47;50.62;101406.06;7393741;19;20003;-58
2023/01/06 06:17:23;;;;;;;12.10;6.15;;;;;;;12.40;51.03;101392.13;7392100;19;20014;-58
2023/01/06 06:19:48;;;;;;;9.68;6.05;;;;;;;12.29;51.15;101396.44;7392965;19;20007;-58
2023/01/06 06:22:14;;;;;;;11.25;6.10;;;;;;;12.14;51.37;101392.41;7389711;19;19998;-58
2023/01/06 06:24:40;;;;;;;11.10;5.95;;;;;;;12.08;51.51;101389.09;7390948;19;20066;-58
2023/01/06 06:27:06;;;;;;;10.80;5.97;;;;;;;12.12;51.02;101387.25;7392098;19;20032;-58
2023/01/06 06:29:31;;;;;;;13.10;5.93;;;;;;;11.92;51.58;101380.69;7391942;19;20002;-58
2023/01/06 06:31:57;;;;;;;9.25;5.68;;;;;;;12.03;51.37;101384.63;7392345;19;19995;-58
2023/01/06 06:34:23;;;;;;;10.70;5.45;;;;;;;12.13;51.26;101388.88;7390026;19;20403;-58
2023/01/06 06:36:49;;;;;;;8.70;5.22;;;;;;;12.09;51.20;101374.28;7392568;19;19998;-58
2023/01/06 06:39:15;;;;;;;10.80;5.47;;;;;;;12.21;51.04;101382.50;7391593;19;20044;-58
2023/01/06 06:41:40;;;;;;;9.43;5.40;;;;;;;12.02;51.64;101374.84;7390315;19;19999;-58
2023/01/06 06:44:06;;;;;;;9.23;4.95;;;;;;;11.97;51.52;101377.78;7390282;19;20466;-58
2023/01/06 06:46:32;;;;;;;8.05;4.68;;;;;;;12.26;50.81;101378.78;7390521;19;20034;-58
2023/01/06 06:48:58;;;;;;;8.82;4.40;;;;;;;12.16;50.84;101390.94;7391070;19;19999;-58
2023/01/06 06:51:24;;;;;;;7.45;4.18;;;;;;;12.13;51.03;101377.13;7387852;19;20015;-59
2023/01/06 06:53:49;;;;;;;7.55;4.28;;;;;;;11.99;51.21;101375.50;7389591;19;20055;-58
2023/01/06 06:56:18;;;;;;;7.50;3.90;;;;;;;12.18;50.79;101388.66;7392108;19;20553;-58
2023/01/06 06:58:44;;;;;;;9.10;4.22;;;;;;;12.19;50.75;101384.78;7392343;19;20058;-59
2023/01/06 07:01:13;;;;;;;8.07;3.95;;;;;;;12.14;50.87;101374.06;7389619;19;20015;-58
2023/01/06 07:03:39;;;;;;;6.40;3.60;;;;;;;12.13;50.89;101369.72;7389076;19;20065;-58
2023/01/06 07:06:11;;;;;;;7.32;3.10;;;;;;;12.12;51.08;101368.13;7388834;19;20456;-59
2023/01/06 07:08:37;;;;;;;8.30;3.55;;;;;;;12.15;50.85;101372.13;7391772;19;20003;-58
2023/01/06 07:11:03;;;;;;;5.85;3.20;;;;;;;12.26;50.60;101364.25;7388224;19;20289;-58
2023/01/06 07:13:29;;;;;;;7.85;2.85;;;;;;;11.98;51.21;101359.41;7389184;19;20460;-57
2023/01/06 07:15:55;;;;;;;5.20;2.70;;;;;;;12.17;50.97;101354.25;7391209;19;20026;-58
2023/01/06 07:18:21;;;;;;;6.20;2.55;;;;;;;12.31;50.59;101361.34;7390845;19;20352;-58
2023/01/06 07:20:49;;;;;;;10.02;2.92;;;;;;;12.17;50.61;101348.78;7389142;19;20493;-58
2023/01/06 07:23:16;;;;;;;6.85;2.40;;;;;;;12.32;50.23;101347.28;7390310;19;19999;-58
2023/01/06 07:25:41;;;;;;;6.05;2.40;;;;;;;12.30;50.45;101351.53;7386655;19;20503;-57
2023/01/06 07:28:08;;;;;;;6.70;2.60;;;;;;;12.31;50.16;101340.22;7390644;19;20002;-58
2023/01/06 07:30:35;;;;;;;3.92;2.03;;;;;;;12.21;50.50;101336.00;7389870;19;20019;-58
2023/01/06 07:33:03;;;;;;;7.90;2.55;;;;;;;12.22;50.29;101340.34;7388502;19;19994;-58
2023/01/06 07:35:28;;;;;;;5.38;1.95;;;;;;;12.06;50.67;101333.09;7390411;19;20485;-58
2023/01/06 07:37:55;;;;;;;3.97;1.90;;;;;;;11.92;51.19;101333.41;7390125;19;20050;-57
2023/01/06 07:40:20;;;;;;;4.32;2.08;;;;;;;12.13;50.16;101325.94;7389060;19;20427;-57
2023/01/06 07:42:49;;;;;;;5.25;1.77;;;;;;;12.06;50.64;101331.19;7389012;19;20002;-60
2023/01/06 07:45:18;;;;;;;4.72;1.67;;;;;;;12.18;50.27;101333.13;7387449;19;20066;-57
2023/01/06 07:47:44;;;;;;;5.38;1.73;;;;;;;12.28;49.95;101331.91;7389552;19;20007;-57
2023/01/06 07:50:09;;;;;;;5.40;1.83;;;;;;;12.20;50.17;101331.66;7387884;19;20002;-57
2023/01/06 07:52:35;;;;;;;4.90;1.80;;;;;;;12.28;50.09;101331.91;7385573;19;20130;-57
2023/01/06 07:55:01;;;;;;;5.13;1.63;;;;;;;12.01;50.71;101334.13;7388746;19;20014;-57
2023/01/06 07:57:28;;;;;;;3.42;1.60;;;;;;;11.98;50.35;101340.28;7390347;19;20012;-58
2023/01/06 07:59:54;;;;;;;9.57;1.73;;;;;;;11.80;51.32;101340.41;7389644;19;20100;-58
2023/01/06 08:02:21;;;;;;;6.07;1.75;;;;;;;12.16;50.48;101340.91;7388300;19;20013;-58
2023/01/06 08:04:47;;;;;;;4.57;1.50;;;;;;;12.29;50.11;101333.47;7387983;19;20002;-57
2023/01/06 08:07:14;;;;;;;5.18;1.70;;;;;;;12.30;50.02;101329.63;7389294;19;20062;-57
2023/01/06 08:09:40;;;;;;;6.38;1.80;;;;;;;12.10;50.38;101337.56;7388234;19;20014;-58
2023/01/06 08:12:06;;;;;;;5.57;1.70;;;;;;;12.34;49.92;101330.53;7387483;19;20021;-57
2023/01/06 08:14:32;;;;;;;6.28;1.48;;;;;;;12.04;50.52;101336.19;7388805;19;20013;-57
2023/01/06 08:16:58;;;;;;;6.25;1.73;;;;;;;12.10;50.55;101329.34;7389505;19;20002;-57
2023/01/06 08:19:23;;;;;;;4.90;1.92;;;;;;;12.06;50.46;101333.91;7396959;19;20409;-57
2023/01/06 08:21:49;;;;;;;2.95;1.55;;;;;;;12.04;50.46;101336.97;7393347;19;20489;-58
2023/01/06 08:24:15;;;;;;;5.55;1.58;;;;;;;12.03;50.64;101340.06;7394383;19;20023;-58
2023/01/06 08:26:41;;;;;;;4.05;1.60;;;;;;;12.08;50.99;101347.25;7392831;19;20013;-57
2023/01/06 08:29:07;;;;;;;6.43;1.77;;;;;;;12.04;50.90;101344.41;7396215;19;20369;-57
2023/01/06 08:31:33;;;;;;;3.47;1.58;;;;;;;11.85;51.51;101353.88;7387812;19;20014;-58
2023/01/06 08:33:59;;;;;;;5.57;1.90;;;;;;;12.02;50.98;101352.13;7394548;19;19998;-57
2023/01/06 08:36:26;;;;;;;4.30;1.55;;;;;;;12.10;50.77;101348.50;7395600;19;20015;-58
2023/01/06 08:38:52;;;;;;;5.72;1.70;;;;;;;12.06;50.88;101361.28;7395726;19;20021;-57
2023/01/06 08:41:19;;;;;;;4.85;1.50;;;;;;;11.89;51.63;101358.69;7393879;19;20511;-58
2023/01/06 08:43:45;;;;;;;5.75;2.03;;;;;;;12.14;51.00;101348.63;7395177;19;20002;-57
2023/01/06 08:46:20;;;;;;;3.70;1.73;;;;;;;11.93;51.91;101360.44;7394335;19;20005;-58
2023/01/06 08:48:46;;;;;;;5.03;1.88;;;;;;;11.60;52.61;101352.19;7393978;19;20003;-58
2023/01/06 08:51:15;;;;;;;4.40;1.70;;;;;;;11.67;52.54;101353.25;7393248;19;20023;-62
2023/01/06 08:53:42;;;;;;;5.57;2.00;;;;;;;11.97;51.88;101360.53;7389841;19;20022;-58
2023/01/06 08:56:13;;;;;;;3.53;1.60;;;;;;;11.99;51.97;101366.47;7394690;19;20467;-57
2023/01/06 08:58:39;;;;;;;6.40;1.90;;;;;;;11.56;53.27;101364.94;7394239;19;20007;-58
2023/01/06 09:01:05;;;;;;;6.80;2.05;;;;;;;11.66;52.92;101365.31;7394625;19;19998;-58
2023/01/06 09:03:31;;;;;;;5.03;1.65;;;;;;;11.94;52.49;101372.16;7392570;19;20381;-58
2023/01/06 09:05:57;;;;;;;4.55;1.80;;;;;;;11.98;52.15;101373.09;7394064;19;20010;-57
2023/01/06 09:08:24;;;;;;;6.30;2.10;;;;;;;12.07;52.06;101382.00;7393942;19;20031;-59
2023/01/06 09:10:50;;;;;;;5.88;1.75;;;;;;;12.12;51.91;101387.25;7393248;19;20007;-58
2023/01/06 09:13:16;;;;;;;5.00;1.92;;;;;;;12.23;51.71;101391.19;7392505;19;20009;-58
2023/01/06 09:15:43;;;;;;;4.18;2.17;;;;;;;12.00;52.33;101379.03;7394428;19;20022;-58
2023/01/06 09:18:09;;;;;;;4.50;2.20;;;;;;;12.11;52.27;101373.94;7392042;19;20503;-58
2023/01/06 09:20:35;;;;;;;3.97;2.00;;;;;;;12.06;52.36;101399.56;7393688;19;20007;-58
2023/01/06 09:23:02;;;;;;;3.67;1.70;;;;;;;11.97;52.57;101399.66;7390274;19;19998;-58
2023/01/06 09:25:27;;;;;;;5.25;1.67;;;;;;;11.87;53.07;101399.25;7393591;19;20006;-58
2023/01/06 09:27:53;;;;;;;6.60;2.03;;;;;;;12.10;52.67;101408.69;7393603;19;20325;-59
2023/01/06 09:30:19;;;;;;;4.63;1.92;;;;;;;12.11;52.66;101404.84;7393300;19;20006;-57
2023/01/06 09:32:51;;;;;;;3.50;1.60;;;;;;;12.36;52.40;101404.91;7393212;19;20003;-58
2023/01/06 09:35:17;;;;;;;2.25;1.70;;;;;;;12.26;52.67;101408.06;7393857;19;20007;-58
2023/01/06 09:37:42;;;;;;;7.47;1.80;;;;;;;11.73;53.87;101410.47;7393691;19;20014;-58
2023/01/06 09:40:18;;;;;;;1.88;1.40;;;;;;;12.20;52.80;101408.28;7392664;19;20020;-58
2023/01/06 09:42:53;;;;;;;4.78;1.60;;;;;;;12.23;52.63;101412.28;7392473;19;19995;-58
2023/01/06 09:45:30;;;;;;;3.20;1.40;;;;;;;12.42;52.12;101411.75;7393215;19;20006;-58
2023/01/06 09:47:59;;;;;;;2.97;1.45;;;;;;;12.52;51.83;101407.78;7393530;19;20011;-57
2023/01/06 09:50:44;;;;;;;2.50;1.30;;;;;;;12.38;52.44;101406.16;7392356;19;20010;-57
2023/01/06 09:53:18;;;;;;;4.10;1.48;;;;;;;12.44;52.14;101412.22;7389446;19;20487;-57
2023/01/06 09:55:46;;;;;;;;;;;;;;;12.13;52.97;101412.72;7394292;19;20115;-58
2023/01/06 09:58:24;;;;;;;3.80;1.40;;;;;;;12.60;51.94;101407.66;7393334;19;19915;-58
2023/01/06 10:00:52;;;;;;;1.92;1.30;;;;;;;12.47;51.95;101405.25;7391517;19;20066;-58
2023/01/06 10:03:20;;;;;;;3.22;1.30;;;;;;;12.49;52.02;101425.69;7390924;19;20483;-57
2023/01/06 10:05:46;;;;;;;3.47;1.48;;;;;;;12.78;51.38;101412.94;7391767;19;19998;-58
2023/01/06 10:09:00;;;;;;;2.25;1.35;;;;;;;12.57;51.54;101419.34;7393599;19;20030;-57
2023/01/06 10:11:32;;;;;;;2.47;1.20;;;;;;;12.46;51.88;101425.56;7386189;19;20468;-58
2023/01/06 10:14:22;;;;;;;2.10;1.40;;;;;;;12.51;51.84;101434.38;7387153;19;20002;-58
2023/01/06 10:17:06;;;;;;;1.63;1.33;;;;;;;12.48;51.88;101445.22;7390959;19;19999;-58
2023/01/06 10:19:43;;;;;;;2.60;1.42;;;;;;;12.48;51.33;101456.94;7392640;19;20003;-57
2023/01/06 10:22:27;;;;;;;3.20;1.40;;;;;;;12.62;51.19;101455.84;7392442;19;20010;-58
2023/01/06 10:25:09;;;;;;;2.40;1.30;;;;;;;12.62;51.07;101444.88;7391701;19;20105;-57
2023/01/06 10:27:39;;;;;;;3.20;1.30;;;;;;;12.68;50.77;101459.97;7392083;19;20002;-57
2023/01/06 10:30:26;;;;;;;2.15;1.05;;;;;;;12.34;50.52;101467.38;7392070;19;20434;-58
2023/01/06 10:32:52;;;;;;;3.75;0.70;;;;;;;12.13;50.44;101464.72;7390919;19;20010;-58
2023/01/06 10:35:21;;;;;;;1.40;0.73;;;;;;;12.34;49.93;101464.66;7391194;19;20002;-57
2023/01/06 10:37:50;;;;;;;1.42;0.75;;;;;;;12.38;49.76;101474.59;7389708;19;20009;-57
2023/01/06 10:40:29;;;;;;;2.20;1.02;;;;;;;12.36;49.05;101459.66;7389060;19;20353;-58
2023/01/06 10:43:05;;;;;;;4.10;1.20;;;;;;;12.18;49.14;101489.91;7389638;19;20112;-59
2023/01/06 10:45:46;;;;;;;2.00;0.80;;;;;;;12.28;48.92;101474.22;7390970;19;19999;-58
2023/01/06 10:48:23;;;;;;;3.20;1.00;;;;;;;12.38;48.19;101473.81;7391831;19;20034;-63
2023/01/06 10:50:49;;;;;;;4.20;0.90;;;;;;;12.45;48.58;101479.53;7388947;19;20222;-61
2023/01/06 10:53:15;;;;;;;3.05;0.60;;;;;;;12.59;48.31;101480.03;7387871;19;20007;-60
2023/01/06 10:55:56;;;;;;;6.72;1.20;;;;;;;12.52;47.10;101498.94;7391906;19;20013;-60
2023/01/06 10:58:41;;;;;;;3.08;0.90;;;;;;;12.43;47.54;101481.81;7394417;19;20062;-59
2023/01/06 11:01:14;;;;;;;4.70;0.88;;;;;;;12.38;47.88;101496.50;7390597;19;20003;-61
2023/01/06 11:03:44;;;;;;;3.88;0.98;;;;;;;12.53;47.30;101495.06;7390101;19;20003;-59
2023/01/06 11:06:30;;;;;;;3.50;0.88;;;;;;;12.35;46.22;101504.59;7389810;19;20033;-60
2023/01/06 11:08:57;;;;;;;4.93;1.13;;;;;;;12.30;47.25;101507.53;7391336;19;20069;-60
2023/01/06 11:11:23;;;;;;;3.33;0.88;;;;;;;12.43;46.95;101519.34;7389782;19;19990;-60
2023/01/06 11:13:54;;;;;;;5.97;0.98;;;;;;;12.50;46.15;101531.34;7389564;19;20070;-59
2023/01/06 11:16:24;;;;;;;3.45;0.98;;;;;;;12.23;46.10;101517.06;7389678;19;20002;-59
2023/01/06 11:18:53;;;;;;;5.40;1.20;;;;;;;12.46;45.83;101508.50;7391541;19;19998;-59
2023/01/06 11:21:20;;;;;;;2.63;0.80;;;;;;;12.43;45.88;101519.34;7386977;19;20071;-59
2023/01/06 11:23:47;;;;;;;4.95;1.00;;;;;;;12.45;45.74;101508.84;7389052;19;20015;-59
2023/01/06 11:26:22;;;;;;;3.00;0.90;;;;;;;12.51;45.41;101519.25;7389476;19;20063;-59
2023/01/06 11:28:52;;;;;;;4.78;1.02;;;;;;;12.45;45.31;101515.13;7389477;19;20005;-60
2023/01/06 11:31:21;;;;;;;4.30;0.93;;;;;;;12.77;45.07;101523.66;7386410;19;20439;-60
2023/01/06 11:33:55;;;;;;;7.05;1.13;;;;;;;12.82;44.82;101530.88;7389278;19;20010;-59
2023/01/06 11:36:24;;;;;;;5.78;1.00;;;;;;;12.80;44.85;101542.16;7390188;19;19998;-59
2023/01/06 11:39:14;;;;;;;6.07;1.02;;;;;;;12.54;44.88;101535.00;7390250;19;19995;-59
2023/01/06 11:41:45;;;;;;;5.82;1.30;;;;;;;12.67;45.06;101540.53;7388420;19;19999;-59